Time;durP1;ratioP1;P1;durP2;ratioP2;P2;SDS_P1;SDS_P2;PMS_P1;PMS_P2;Temp;Humidity;BMP_temperature;BMP_pressure;BME280_temperature;BME280_humidity;BME280_pressure;Samples;Min_cycle;Max_cycle;Signal;HPM_P1;HPM_P2
2022/05/08 00:00:22;;;;;;;13.07;9.80;;;;;;;;;;5016720;28;20223;-67
2022/05/08 00:02:52;;;;;;;14.13;9.83;;;;;;;;;;5009423;28;20337;-67
2022/05/08 00:05:19;;;;;;;13.03;9.57;;;;;;;;;;5009490;28;20199;-66
2022/05/08 00:07:45;;;;;;;12.70;9.17;;;;;;;;;;5008405;28;20188;-67
2022/05/08 00:10:12;;;;;;;14.40;9.20;;;;;;;;;;5009449;28;20180;-66
2022/05/08 00:12:39;;;;;;;15.37;9.67;;;;;;;;;;5007925;28;20196;-67
2022/05/08 00:15:08;;;;;;;13.37;9.23;;;;;;;;;;5012745;28;20318;-66
2022/05/08 00:17:35;;;;;;;15.50;9.97;;;;;;;;;;5028956;28;20243;-66
2022/05/08 00:20:05;;;;;;;13.87;9.77;;;;;;;;;;5028881;28;20650;-66
2022/05/08 00:22:49;;;;;;;13.60;8.93;;;;;;;;;;5028549;28;20183;-66
2022/05/08 00:25:16;;;;;;;17.17;9.73;;;;;;;;;;5028882;28;20270;-67
2022/05/08 00:28:00;;;;;;;13.87;9.20;;;;;;;;;;5028631;28;20167;-66
2022/05/08 00:30:27;;;;;;;11.70;8.70;;;;;;;;;;5011112;28;20262;-66
2022/05/08 00:32:54;;;;;;;13.00;9.03;;;;;;;;;;5028003;28;20192;-66
2022/05/08 00:35:20;;;;;;;10.53;8.23;;;;;;;;;;5028430;28;20222;-66
2022/05/08 00:37:47;;;;;;;13.10;9.33;;;;;;;;;;5028013;28;20254;-67
2022/05/08 00:40:14;;;;;;;14.87;9.03;;;;;;;;;;5039960;28;20221;-66
2022/05/08 00:42:41;;;;;;;11.53;8.70;;;;;;;;;;5014388;28;20196;-66
2022/05/08 00:45:08;;;;;;;13.43;9.60;;;;;;;;;;5012537;28;20196;-65
2022/05/08 00:47:36;;;;;;;15.20;9.37;;;;;;;;;;5012008;28;20267;-66
2022/05/08 00:50:03;;;;;;;12.33;9.10;;;;;;;;;;5008791;28;20216;-66
2022/05/08 00:52:30;;;;;;;14.57;9.70;;;;;;;;;;5008303;28;20195;-67
2022/05/08 00:54:58;;;;;;;14.30;9.10;;;;;;;;;;5008510;28;20200;-66
2022/05/08 00:57:25;;;;;;;13.17;9.20;;;;;;;;;;5008402;28;20299;-66
2022/05/08 00:59:57;;;;;;;11.30;9.10;;;;;;;;;;5008926;28;20293;-66
2022/05/08 01:02:24;;;;;;;11.63;8.50;;;;;;;;;;4990983;28;20195;-66
2022/05/08 01:04:51;;;;;;;14.47;9.47;;;;;;;;;;5018531;28;20195;-66
2022/05/08 01:07:18;;;;;;;13.57;9.77;;;;;;;;;;5028064;28;20314;-66
2022/05/08 01:09:44;;;;;;;14.10;9.83;;;;;;;;;;5010499;28;20697;-66
2022/05/08 01:12:11;;;;;;;14.90;9.87;;;;;;;;;;5027968;28;20674;-66
2022/05/08 01:14:38;;;;;;;12.40;9.53;;;;;;;;;;5028206;28;20183;-66
2022/05/08 01:17:05;;;;;;;12.97;10.10;;;;;;;;;;5027848;28;20239;-67
2022/05/08 01:19:32;;;;;;;14.20;10.80;;;;;;;;;;5032352;28;20187;-66
2022/05/08 01:21:58;;;;;;;13.30;9.87;;;;;;;;;;5034428;28;20187;-66
2022/05/08 01:24:25;;;;;;;14.50;10.00;;;;;;;;;;5034520;28;20614;-66
2022/05/08 01:26:52;;;;;;;15.87;10.43;;;;;;;;;;5034645;28;20692;-66
2022/05/08 01:29:19;;;;;;;14.70;11.00;;;;;;;;;;5034490;28;20195;-67
2022/05/08 01:31:46;;;;;;;16.40;11.60;;;;;;;;;;5034413;28;20262;-66
2022/05/08 01:34:13;;;;;;;18.07;11.70;;;;;;;;;;5034118;28;20465;-66
2022/05/08 01:36:41;;;;;;;18.80;12.33;;;;;;;;;;5016318;28;20505;-66
2022/05/08 01:39:08;;;;;;;17.17;11.97;;;;;;;;;;5037924;28;20241;-67
2022/05/08 01:41:35;;;;;;;16.70;11.63;;;;;;;;;;5054443;28;20190;-66
2022/05/08 01:44:02;;;;;;;18.47;10.87;;;;;;;;;;5054380;28;20518;-66
2022/05/08 01:46:28;;;;;;;16.97;11.07;;;;;;;;;;5054182;28;20524;-66
2022/05/08 01:48:55;;;;;;;15.30;10.47;;;;;;;;;;5054391;28;20191;-66
2022/05/08 01:51:23;;;;;;;16.07;10.60;;;;;;;;;;5054160;28;20270;-66
2022/05/08 01:53:50;;;;;;;18.90;11.80;;;;;;;;;;5054567;28;20241;-66
2022/05/08 01:56:16;;;;;;;15.40;11.13;;;;;;;;;;5039808;28;20686;-66
2022/05/08 01:58:43;;;;;;;14.23;10.33;;;;;;;;;;5033829;28;20302;-66
2022/05/08 02:01:10;;;;;;;17.07;11.93;;;;;;;;;;5034245;28;20191;-66
2022/05/08 02:03:37;;;;;;;19.00;11.27;;;;;;;;;;5034254;28;20211;-66
2022/05/08 02:06:04;;;;;;;16.33;12.10;;;;;;;;;;5016647;28;20702;-66
2022/05/08 02:08:31;;;;;;;17.23;12.20;;;;;;;;;;5034028;28;20449;-67
2022/05/08 02:10:57;;;;;;;19.10;12.23;;;;;;;;;;5033262;28;20605;-67
2022/05/08 02:13:24;;;;;;;21.70;13.67;;;;;;;;;;5033768;28;20192;-66
2022/05/08 02:15:51;;;;;;;22.53;13.23;;;;;;;;;;5016699;28;20209;-67
2022/05/08 02:18:18;;;;;;;21.37;13.07;;;;;;;;;;5034064;28;20215;-68
2022/05/08 02:20:44;;;;;;;21.00;13.23;;;;;;;;;;5016393;28;20238;-66
2022/05/08 02:23:11;;;;;;;19.93;13.37;;;;;;;;;;5033884;28;20545;-65
2022/05/08 02:25:38;;;;;;;19.80;14.17;;;;;;;;;;5033888;28;20179;-66
2022/05/08 02:28:05;;;;;;;19.33;13.23;;;;;;;;;;5027415;28;20192;-65
2022/05/08 02:30:32;;;;;;;21.40;13.57;;;;;;;;;;5011354;28;20207;-66
2022/05/08 02:33:17;;;;;;;20.07;13.23;;;;;;;;;;5011055;28;20199;-66
2022/05/08 02:35:43;;;;;;;19.60;13.10;;;;;;;;;;5011069;28;20466;-67
2022/05/08 02:38:10;;;;;;;21.77;13.23;;;;;;;;;;5010700;28;20610;-65
2022/05/08 02:40:37;;;;;;;20.37;12.60;;;;;;;;;;5042532;28;20241;-68
2022/05/08 02:43:04;;;;;;;19.70;12.00;;;;;;;;;;5032812;28;20222;-66
2022/05/08 02:45:31;;;;;;;25.43;13.50;;;;;;;;;;5047805;28;20439;-66
2022/05/08 02:47:57;;;;;;;18.30;12.63;;;;;;;;;;5031035;28;20192;-66
2022/05/08 02:50:25;;;;;;;20.53;12.70;;;;;;;;;;5030466;28;20195;-67
2022/05/08 02:52:52;;;;;;;21.47;13.13;;;;;;;;;;5030557;28;20183;-67
2022/05/08 03:01:07;;;;;;;20.47;11.83;;;;;;;;;;5030083;28;20221;-66
2022/05/08 03:03:34;;;;;;;18.93;11.93;;;;;;;;;;5028926;28;20846;-67
2022/05/08 03:06:01;;;;;;;20.47;11.33;;;;;;;;;;5029119;28;20206;-67
2022/05/08 03:08:28;;;;;;;18.40;11.60;;;;;;;;;;5029912;28;20188;-67
2022/05/08 03:13:40;;;;;;;20.17;11.93;;;;;;;;;;5030088;28;20546;-67
2022/05/08 03:16:08;;;;;;;18.53;11.00;;;;;;;;;;5012386;28;20515;-67
2022/05/08 03:18:38;;;;;;;21.07;11.67;;;;;;;;;;5007587;28;20809;-66
2022/05/08 03:21:05;;;;;;;17.77;10.87;;;;;;;;;;5009116;28;20478;-66
2022/05/08 03:23:51;;;;;;;17.93;10.57;;;;;;;;;;5010284;28;20179;-66
2022/05/08 03:26:20;;;;;;;17.07;10.80;;;;;;;;;;5009980;28;20192;-67
2022/05/08 03:29:07;;;;;;;21.67;10.27;;;;;;;;;;4992401;28;20171;-66
2022/05/08 03:31:37;;;;;;;16.63;9.93;;;;;;;;;;5010205;28;20203;-67
2022/05/08 03:34:24;;;;;;;18.33;10.33;;;;;;;;;;4995183;28;20423;-67
2022/05/08 03:36:50;;;;;;;19.37;10.53;;;;;;;;;;5009486;28;20482;-66
2022/05/08 03:39:17;;;;;;;16.80;10.70;;;;;;;;;;5019902;28;20352;-67
2022/05/08 03:41:44;;;;;;;19.93;10.90;;;;;;;;;;5044240;28;20484;-67
2022/05/08 03:44:11;;;;;;;15.57;10.27;;;;;;;;;;5029546;28;20274;-67
2022/05/08 03:46:37;;;;;;;19.53;11.47;;;;;;;;;;5029624;28;20836;-67
2022/05/08 03:49:04;;;;;;;20.63;10.97;;;;;;;;;;5029035;28;20187;-67
2022/05/08 03:51:31;;;;;;;20.90;10.93;;;;;;;;;;5028983;28;20430;-67
2022/05/08 03:53:58;;;;;;;19.70;9.53;;;;;;;;;;5029667;28;20230;-67
2022/05/08 03:56:27;;;;;;;18.87;10.17;;;;;;;;;;5029202;28;20707;-67
2022/05/08 03:58:54;;;;;;;17.93;10.07;;;;;;;;;;5029428;28;20267;-66
2022/05/08 04:01:21;;;;;;;25.67;11.70;;;;;;;;;;5010243;28;20438;-67
2022/05/08 04:03:48;;;;;;;17.17;10.50;;;;;;;;;;5028990;28;20187;-67
2022/05/08 04:06:15;;;;;;;15.00;8.80;;;;;;;;;;5029172;28;20218;-68
2022/05/08 04:08:42;;;;;;;17.50;9.57;;;;;;;;;;5009115;28;20267;-67
2022/05/08 04:11:08;;;;;;;14.40;9.10;;;;;;;;;;5008757;28;20188;-67
2022/05/08 04:13:35;;;;;;;15.73;8.90;;;;;;;;;;5009115;28;20195;-68
2022/05/08 04:16:17;;;;;;;15.77;9.43;;;;;;;;;;5009167;28;20177;-67
2022/05/08 04:18:44;;;;;;;13.33;8.60;;;;;;;;;;5025461;28;20218;-67
2022/05/08 04:21:11;;;;;;;16.20;8.50;;;;;;;;;;5028850;28;20605;-66
2022/05/08 04:26:23;;;;;;;14.13;8.17;;;;;;;;;;5028703;28;21002;-67
2022/05/08 04:28:50;;;;;;;15.37;8.07;;;;;;;;;;5011192;28;20198;-68
2022/05/08 04:31:17;;;;;;;15.30;8.03;;;;;;;;;;5028639;28;20811;-67
2022/05/08 04:33:44;;;;;;;13.57;7.57;;;;;;;;;;5027333;28;20203;-67
2022/05/08 04:36:11;;;;;;;9.30;7.07;;;;;;;;;;5028556;28;20660;-68
2022/05/08 04:38:38;;;;;;;16.97;7.63;;;;;;;;;;5028817;28;20227;-68
2022/05/08 04:41:22;;;;;;;13.43;7.53;;;;;;;;;;5008595;28;20172;-67
2022/05/08 04:43:50;;;;;;;12.37;7.07;;;;;;;;;;5007580;28;20203;-67
2022/05/08 04:46:19;;;;;;;12.70;7.30;;;;;;;;;;5008591;28;20211;-68
2022/05/08 04:48:46;;;;;;;16.30;8.20;;;;;;;;;;5008575;28;20196;-68
2022/05/08 04:51:13;;;;;;;16.37;7.40;;;;;;;;;;5022339;28;20845;-68
2022/05/08 04:53:40;;;;;;;15.27;7.57;;;;;;;;;;5010650;28;20203;-68
2022/05/08 04:56:07;;;;;;;10.33;6.80;;;;;;;;;;5027796;28;20217;-67
2022/05/08 04:58:34;;;;;;;12.60;6.70;;;;;;;;;;5010911;28;20290;-66
2022/05/08 05:01:01;;;;;;;14.37;7.37;;;;;;;;;;5028097;28;20191;-66
2022/05/08 05:03:29;;;;;;;15.10;7.70;;;;;;;;;;5028130;28;20187;-67
2022/05/08 05:05:57;;;;;;;10.53;6.97;;;;;;;;;;5027346;28;20214;-68
2022/05/08 05:08:23;;;;;;;14.17;6.60;;;;;;;;;;5028015;28;20199;-68
2022/05/08 05:10:50;;;;;;;15.73;7.40;;;;;;;;;;5028223;28;20226;-67
2022/05/08 05:13:17;;;;;;;11.27;6.60;;;;;;;;;;5028210;28;20191;-67
2022/05/08 05:15:43;;;;;;;19.80;7.00;;;;;;;;;;5027775;28;20201;-66
2022/05/08 05:18:10;;;;;;;11.27;6.10;;;;;;;;;;5028057;28;20248;-68
2022/05/08 05:20:37;;;;;;;10.30;5.63;;;;;;;;;;5010233;28;20253;-68
2022/05/08 05:23:04;;;;;;;11.50;5.80;;;;;;;;;;5027517;28;20702;-68
2022/05/08 05:25:31;;;;;;;13.90;5.17;;;;;;;;;;5027780;28;20548;-67
2022/05/08 05:27:58;;;;;;;8.10;4.43;;;;;;;;;;5010560;28;20199;-69
2022/05/08 05:30:27;;;;;;;13.70;4.57;;;;;;;;;;4993809;28;20273;-66
2022/05/08 05:32:54;;;;;;;11.70;4.10;;;;;;;;;;5028357;28;20666;-67
2022/05/08 05:35:21;;;;;;;14.30;4.33;;;;;;;;;;5027508;28;20200;-68
2022/05/08 05:37:48;;;;;;;10.27;4.50;;;;;;;;;;5016295;28;20318;-69
2022/05/08 05:40:15;;;;;;;9.13;3.87;;;;;;;;;;5028395;28;20266;-67
2022/05/08 05:42:41;;;;;;;10.53;4.40;;;;;;;;;;5027432;28;20187;-67
2022/05/08 05:45:08;;;;;;;13.37;4.17;;;;;;;;;;5027870;28;20186;-67
2022/05/08 05:47:50;;;;;;;10.93;3.93;;;;;;;;;;5027778;28;20246;-67
2022/05/08 05:50:17;;;;;;;9.57;4.03;;;;;;;;;;5027433;28;20219;-60
2022/05/08 05:52:44;;;;;;;16.57;3.80;;;;;;;;;;5024922;28;20262;-60
2022/05/08 05:55:11;;;;;;;9.70;3.80;;;;;;;;;;5007643;28;20193;-60
2022/05/08 05:57:39;;;;;;;10.27;3.60;;;;;;;;;;5008008;28;20319;-61
2022/05/08 06:00:10;;;;;;;6.97;2.97;;;;;;;;;;5008112;28;20239;-60
2022/05/08 06:02:40;;;;;;;10.80;3.47;;;;;;;;;;5008735;28;20188;-60
2022/05/08 06:05:07;;;;;;;13.43;3.17;;;;;;;;;;5008080;28;20196;-60
2022/05/08 06:07:34;;;;;;;7.80;2.80;;;;;;;;;;5011625;28;20863;-60
2022/05/08 06:10:01;;;;;;;6.57;2.57;;;;;;;;;;5011060;28;20700;-60
2022/05/08 06:12:29;;;;;;;6.20;2.23;;;;;;;;;;5011693;28;20220;-60
2022/05/08 06:14:56;;;;;;;7.47;2.17;;;;;;;;;;5011747;28;20196;-60
2022/05/08 06:17:23;;;;;;;10.43;2.63;;;;;;;;;;5011213;28;20298;-60
2022/05/08 06:19:50;;;;;;;9.33;2.73;;;;;;;;;;5011116;28;20245;-60
2022/05/08 06:22:17;;;;;;;8.20;2.47;;;;;;;;;;5011202;28;20506;-60
2022/05/08 06:24:43;;;;;;;6.97;2.43;;;;;;;;;;5011017;28;20192;-60
2022/05/08 06:27:10;;;;;;;8.47;2.30;;;;;;;;;;5020230;28;20198;-60
2022/05/08 06:29:38;;;;;;;8.60;2.33;;;;;;;;;;5028933;28;20206;-61
2022/05/08 06:32:05;;;;;;;8.87;2.13;;;;;;;;;;5011753;28;20243;-61
2022/05/08 06:34:33;;;;;;;9.80;2.50;;;;;;;;;;5022811;28;20267;-60
2022/05/08 06:37:00;;;;;;;10.07;2.57;;;;;;;;;;5012533;28;20594;-61
2022/05/08 06:39:27;;;;;;;6.00;2.10;;;;;;;;;;5024402;28;20278;-60
2022/05/08 06:41:53;;;;;;;6.30;2.23;;;;;;;;;;5003453;28;20207;-61
2022/05/08 06:44:28;;;;;;;4.27;1.80;;;;;;;;;;5012245;28;20603;-61
2022/05/08 06:46:56;;;;;;;5.40;2.07;;;;;;;;;;5011658;28;20258;-61
2022/05/08 06:49:22;;;;;;;5.57;1.87;;;;;;;;;;5016526;28;20191;-61
2022/05/08 06:51:49;;;;;;;4.53;1.67;;;;;;;;;;5030241;28;20605;-60
2022/05/08 06:54:16;;;;;;;5.57;1.83;;;;;;;;;;5030702;28;20314;-61
2022/05/08 06:56:44;;;;;;;5.63;1.53;;;;;;;;;;5029388;28;20194;-61
2022/05/08 07:01:56;;;;;;;7.93;2.23;;;;;;;;;;5027546;28;20635;-60
2022/05/08 07:04:23;;;;;;;6.67;1.60;;;;;;;;;;5030272;28;20187;-60
2022/05/08 07:06:50;;;;;;;6.73;1.60;;;;;;;;;;5029905;28;20188;-60
2022/05/08 07:09:17;;;;;;;3.30;1.60;;;;;;;;;;5030168;28;20221;-60
2022/05/08 07:11:47;;;;;;;4.00;1.63;;;;;;;;;;5029122;28;20755;-60
2022/05/08 07:14:14;;;;;;;7.00;1.90;;;;;;;;;;5030271;28;20195;-60
2022/05/08 07:16:41;;;;;;;3.33;1.20;;;;;;;;;;5029160;28;20199;-60
2022/05/08 07:19:09;;;;;;;6.57;1.80;;;;;;;;;;5027529;28;20227;-60
2022/05/08 07:21:36;;;;;;;4.27;1.60;;;;;;;;;;5047267;28;20214;-60
2022/05/08 07:24:03;;;;;;;5.30;1.80;;;;;;;;;;5015337;28;20647;-60
2022/05/08 07:26:31;;;;;;;6.20;1.70;;;;;;;;;;5009877;28;20250;-60
2022/05/08 07:28:58;;;;;;;4.13;1.30;;;;;;;;;;5010162;28;20199;-60
2022/05/08 07:31:25;;;;;;;6.90;1.73;;;;;;;;;;4994765;28;20199;-61
2022/05/08 07:36:39;;;;;;;4.53;1.70;;;;;;;;;;5011027;28;20195;-61
2022/05/08 07:39:06;;;;;;;5.73;1.90;;;;;;;;;;5029438;28;20219;-60
2022/05/08 07:41:33;;;;;;;4.30;1.70;;;;;;;;;;5029172;28;20558;-60
2022/05/08 07:44:17;;;;;;;4.57;1.53;;;;;;;;;;4997577;28;20234;-60
2022/05/08 07:46:44;;;;;;;6.93;1.30;;;;;;;;;;5011110;28;20729;-60
2022/05/08 07:49:11;;;;;;;5.33;1.60;;;;;;;;;;5028645;28;20709;-61
2022/05/08 07:51:38;;;;;;;10.87;1.80;;;;;;;;;;5028888;28;20184;-60
2022/05/08 07:54:05;;;;;;;7.67;2.20;;;;;;;;;;5029241;28;20195;-60
2022/05/08 07:56:34;;;;;;;4.73;1.53;;;;;;;;;;5028945;28;20199;-60
2022/05/08 07:59:02;;;;;;;6.73;2.00;;;;;;;;;;5028322;28;20317;-60
2022/05/08 08:01:29;;;;;;;5.93;2.07;;;;;;;;;;5028246;28;20198;-60
2022/05/08 08:04:16;;;;;;;3.63;1.43;;;;;;;;;;5013437;28;20191;-59
2022/05/08 08:06:42;;;;;;;9.27;1.90;;;;;;;;;;5028517;28;20273;-59
2022/05/08 08:09:10;;;;;;;4.27;1.87;;;;;;;;;;5027808;28;20203;-61
2022/05/08 08:11:38;;;;;;;7.37;1.70;;;;;;;;;;5027487;28;20652;-61
2022/05/08 08:14:05;;;;;;;5.10;1.60;;;;;;;;;;5024333;28;20645;-60
2022/05/08 08:16:33;;;;;;;5.57;1.53;;;;;;;;;;5028322;28;20701;-59
2022/05/08 08:19:00;;;;;;;5.90;1.67;;;;;;;;;;5028094;28;20693;-59
2022/05/08 08:21:27;;;;;;;6.70;2.00;;;;;;;;;;5027858;28;20180;-59
2022/05/08 08:23:54;;;;;;;5.87;1.80;;;;;;;;;;5028378;28;20203;-61
2022/05/08 08:26:21;;;;;;;4.63;1.20;;;;;;;;;;5028288;28;20221;-60
2022/05/08 08:28:48;;;;;;;3.73;1.37;;;;;;;;;;5027028;28;20191;-60
2022/05/08 08:31:15;;;;;;;4.77;1.60;;;;;;;;;;5018054;28;20275;-60
2022/05/08 08:33:45;;;;;;;6.87;1.90;;;;;;;;;;5024588;28;20295;-60
2022/05/08 08:36:12;;;;;;;6.53;1.60;;;;;;;;;;5012140;28;20242;-60
2022/05/08 08:38:39;;;;;;;9.13;2.27;;;;;;;;;;5027970;28;20824;-57
2022/05/08 08:41:07;;;;;;;15.17;2.47;;;;;;;;;;5019483;28;21066;-57
2022/05/08 08:47:42;;;;;;;5.17;1.80;;;;;;;;;;5027830;28;20192;-56
2022/05/08 08:49:25;;;;;;;4.00;1.50;;;;;;;;;;5027957;28;20194;-57
2022/05/08 08:51:52;;;;;;;5.10;1.73;;;;;;;;;;5027270;28;20666;-58
2022/05/08 08:54:19;;;;;;;4.87;1.47;;;;;;;;;;5027789;28;20195;-57
2022/05/08 08:56:49;;;;;;;4.40;1.47;;;;;;;;;;5027971;28;20919;-57
2022/05/08 08:59:21;;;;;;;7.07;1.60;;;;;;;;;;5027226;28;20258;-57
2022/05/08 09:01:48;;;;;;;6.27;1.80;;;;;;;;;;5027073;28;20195;-59
2022/05/08 09:04:18;;;;;;;7.37;2.00;;;;;;;;;;5026766;28;20195;-57
2022/05/08 09:06:45;;;;;;;5.83;1.73;;;;;;;;;;5027583;28;20180;-57
2022/05/08 09:09:23;;;;;;;9.77;2.10;;;;;;;;;;5027708;28;20207;-57
2022/05/08 09:11:50;;;;;;;6.03;2.07;;;;;;;;;;5027228;28;20554;-58
2022/05/08 09:14:29;;;;;;;8.80;1.90;;;;;;;;;;5027425;28;20191;-57
2022/05/08 09:16:56;;;;;;;4.97;1.63;;;;;;;;;;5027112;28;20191;-58
2022/05/08 09:19:37;;;;;;;4.57;1.80;;;;;;;;;;5027811;28;20219;-57
2022/05/08 09:22:11;;;;;;;5.10;1.60;;;;;;;;;;5024672;28;20199;-57
2022/05/08 09:24:53;;;;;;;6.07;1.37;;;;;;;;;;5027316;28;20207;-57
2022/05/08 09:27:22;;;;;;;23.13;2.30;;;;;;;;;;5027167;28;20445;-57
2022/05/08 09:29:50;;;;;;;9.00;2.00;;;;;;;;;;5027130;28;20206;-58
2022/05/08 09:32:35;;;;;;;6.77;2.00;;;;;;;;;;5011967;28;20195;-57
2022/05/08 09:35:02;;;;;;;13.57;2.07;;;;;;;;;;5026889;28;20195;-57
2022/05/08 09:37:30;;;;;;;6.60;1.87;;;;;;;;;;5024855;28;20237;-58
2022/05/08 09:40:16;;;;;;;15.20;2.00;;;;;;;;;;5011782;28;20230;-58
2022/05/08 09:42:43;;;;;;;6.03;1.63;;;;;;;;;;5031289;28;20227;-56
2022/05/08 09:45:10;;;;;;;7.40;1.60;;;;;;;;;;5031659;28;20516;-56
2022/05/08 09:47:44;;;;;;;5.13;1.70;;;;;;;;;;5031468;28;20543;-57
2022/05/08 09:50:11;;;;;;;27.43;3.77;;;;;;;;;;5030889;28;20195;-56
2022/05/08 09:52:41;;;;;;;5.43;2.10;;;;;;;;;;5030808;28;20191;-57
2022/05/08 09:55:08;;;;;;;7.00;1.90;;;;;;;;;;5030921;28;20223;-56
2022/05/08 09:57:35;;;;;;;7.93;1.97;;;;;;;;;;5031126;28;20647;-56
2022/05/08 10:00:03;;;;;;;7.20;1.70;;;;;;;;;;5030631;28;20227;-58
2022/05/08 10:02:38;;;;;;;3.77;1.50;;;;;;;;;;5029984;28;20194;-58
2022/05/08 10:05:05;;;;;;;8.97;2.00;;;;;;;;;;5030622;28;20866;-56
2022/05/08 10:07:33;;;;;;;5.27;1.63;;;;;;;;;;5013360;28;20554;-56
2022/05/08 10:15:32;;;;;;;5.17;2.10;;;;;;;;;;5029938;28;20561;-56
2022/05/08 10:18:18;;;;;;;8.43;1.63;;;;;;;;;;5011347;28;21023;-56
2022/05/08 10:21:03;;;;;;;7.53;1.60;;;;;;;;;;5030453;28;20265;-58
2022/05/08 10:23:40;;;;;;;7.07;1.83;;;;;;;;;;5026859;28;20196;-59
2022/05/08 10:26:16;;;;;;;5.23;2.07;;;;;;;;;;5029253;28;20207;-57
2022/05/08 10:29:03;;;;;;;4.77;1.80;;;;;;;;;;5029407;28;20183;-58
2022/05/08 10:31:42;;;;;;;21.77;2.67;;;;;;;;;;5028970;28;20286;-58
2022/05/08 10:34:33;;;;;;;5.73;1.53;;;;;;;;;;5016539;28;20179;-59
2022/05/08 10:37:13;;;;;;;5.80;2.00;;;;;;;;;;5020187;28;20337;-58
2022/05/08 10:39:43;;;;;;;3.50;1.50;;;;;;;;;;5033168;28;20223;-59
2022/05/08 10:42:39;;;;;;;5.63;2.00;;;;;;;;;;5019998;28;20298;-58
2022/05/08 10:45:29;;;;;;;8.43;1.80;;;;;;;;;;5028982;28;20203;-58
2022/05/08 10:47:56;;;;;;;13.40;2.77;;;;;;;;;;5029012;28;20215;-58
2022/05/08 10:50:23;;;;;;;5.27;1.50;;;;;;;;;;5028362;28;20200;-59
2022/05/08 10:52:50;;;;;;;5.03;1.40;;;;;;;;;;5028403;28;20570;-58
2022/05/08 10:55:24;;;;;;;5.43;1.50;;;;;;;;;;5029342;28;20207;-58
2022/05/08 10:57:51;;;;;;;3.73;1.53;;;;;;;;;;5028739;28;20299;-58
2022/05/08 11:00:19;;;;;;;4.07;1.43;;;;;;;;;;5029504;28;20277;-58
2022/05/08 11:02:52;;;;;;;5.00;1.50;;;;;;;;;;5033766;28;20907;-58
2022/05/08 11:05:20;;;;;;;3.63;1.33;;;;;;;;;;5036328;28;20313;-57
2022/05/08 11:07:56;;;;;;;5.40;1.53;;;;;;;;;;5025049;28;20709;-58
2022/05/08 11:10:24;;;;;;;5.67;1.33;;;;;;;;;;5021092;28;20195;-59
2022/05/08 11:12:59;;;;;;;7.53;1.60;;;;;;;;;;5023598;28;20188;-58
2022/05/08 11:15:29;;;;;;;4.17;1.47;;;;;;;;;;5029209;28;20175;-59
2022/05/08 11:18:16;;;;;;;4.27;1.50;;;;;;;;;;5029610;28;20186;-57
2022/05/08 11:20:43;;;;;;;7.37;1.50;;;;;;;;;;5012038;28;20200;-58
2022/05/08 11:23:10;;;;;;;15.13;2.47;;;;;;;;;;5029175;28;20610;-57
2022/05/08 11:25:37;;;;;;;5.93;1.60;;;;;;;;;;5029260;28;20188;-58
2022/05/08 11:28:04;;;;;;;5.87;1.30;;;;;;;;;;5029415;28;20214;-57
2022/05/08 11:30:37;;;;;;;5.20;1.50;;;;;;;;;;5012636;28;20192;-57
2022/05/08 11:36:06;;;;;;;18.23;2.10;;;;;;;;;;5028663;28;20186;-58
2022/05/08 11:38:59;;;;;;;9.57;1.27;;;;;;;;;;5028599;28;20839;-57
2022/05/08 11:41:27;;;;;;;6.43;1.83;;;;;;;;;;5020203;28;20282;-57
2022/05/08 11:43:54;;;;;;;4.87;1.30;;;;;;;;;;5010613;28;20224;-57
2022/05/08 11:46:37;;;;;;;5.93;1.40;;;;;;;;;;5028576;28;20203;-57
2022/05/08 11:49:24;;;;;;;20.90;2.40;;;;;;;;;;5025140;28;20272;-57
2022/05/08 11:51:56;;;;;;;27.63;2.80;;;;;;;;;;5026037;28;20550;-57
2022/05/08 11:54:33;;;;;;;6.00;1.40;;;;;;;;;;5028835;28;20192;-58
2022/05/08 11:57:10;;;;;;;3.77;1.43;;;;;;;;;;5028974;28;20194;-57
2022/05/08 11:59:37;;;;;;;3.77;1.43;;;;;;;;;;5028549;28;20268;-58
2022/05/08 12:02:04;;;;;;;3.40;1.50;;;;;;;;;;5028336;28;20184;-57
2022/05/08 12:04:35;;;;;;;7.17;1.40;;;;;;;;;;5028445;28;20198;-57
2022/05/08 12:07:06;;;;;;;5.53;1.30;;;;;;;;;;5022604;28;20196;-58
2022/05/08 12:09:37;;;;;;;19.60;2.00;;;;;;;;;;5023793;28;21065;-58
2022/05/08 12:12:33;;;;;;;3.20;1.50;;;;;;;;;;5028459;28;20255;-57
2022/05/08 12:15:03;;;;;;;2.87;1.30;;;;;;;;;;5028635;28;20202;-57
2022/05/08 12:17:44;;;;;;;61.83;5.30;;;;;;;;;;5028313;28;20207;-57
2022/05/08 12:20:18;;;;;;;2.33;1.17;;;;;;;;;;5012357;28;20296;-58
2022/05/08 12:22:45;;;;;;;4.47;1.20;;;;;;;;;;5026996;28;20187;-57
2022/05/08 12:25:13;;;;;;;6.20;1.60;;;;;;;;;;5011089;28;20204;-57
2022/05/08 12:27:40;;;;;;;3.10;1.47;;;;;;;;;;5028188;28;20650;-58
2022/05/08 12:30:10;;;;;;;5.23;1.30;;;;;;;;;;5028483;28;20972;-57
2022/05/08 12:32:39;;;;;;;2.90;2.07;;;;;;;;;;5028065;28;20191;-57
2022/05/08 12:35:10;;;;;;;3.70;2.23;;;;;;;;;;5028276;28;20195;-57
2022/05/08 12:37:38;;;;;;;3.20;2.30;;;;;;;;;;5027892;28;20578;-57
2022/05/08 12:40:12;;;;;;;3.73;2.70;;;;;;;;;;5016168;28;20269;-57
2022/05/08 12:42:39;;;;;;;3.70;2.00;;;;;;;;;;5028145;28;20909;-57
2022/05/08 12:45:07;;;;;;;6.30;2.60;;;;;;;;;;5027654;28;20273;-57
2022/05/08 12:47:33;;;;;;;8.20;3.17;;;;;;;;;;5027893;28;20184;-57
2022/05/08 12:50:06;;;;;;;5.20;3.17;;;;;;;;;;5027653;28;20258;-57
2022/05/08 12:52:35;;;;;;;5.23;3.10;;;;;;;;;;5026947;28;20195;-57
2022/05/08 12:55:02;;;;;;;5.03;3.20;;;;;;;;;;5027108;28;20195;-60
2022/05/08 13:00:16;;;;;;;14.70;3.80;;;;;;;;;;5012515;28;20234;-59
2022/05/08 13:02:44;;;;;;;7.00;3.90;;;;;;;;;;5027819;28;20195;-59
2022/05/08 13:05:11;;;;;;;6.10;3.90;;;;;;;;;;5027319;28;20207;-59
2022/05/08 13:07:38;;;;;;;6.57;4.00;;;;;;;;;;5010079;28;20180;-59
2022/05/08 13:10:05;;;;;;;8.53;3.97;;;;;;;;;;5027630;28;20215;-59
2022/05/08 13:12:31;;;;;;;6.93;4.40;;;;;;;;;;5023868;28;20225;-59
2022/05/08 13:14:58;;;;;;;6.00;3.40;;;;;;;;;;5027562;28;20187;-59
2022/05/08 13:17:25;;;;;;;5.23;3.30;;;;;;;;;;5027642;28;20215;-60
2022/05/08 13:19:52;;;;;;;10.60;3.43;;;;;;;;;;5027259;28;20207;-59
2022/05/08 13:22:19;;;;;;;5.83;3.70;;;;;;;;;;5026991;28;20198;-60
2022/05/08 13:24:46;;;;;;;8.20;3.40;;;;;;;;;;5027573;28;20218;-59
2022/05/08 13:27:13;;;;;;;407.30;37.40;;;;;;;;;;5026681;28;20182;-61
2022/05/08 13:29:39;;;;;;;11.10;3.80;;;;;;;;;;5008098;28;20177;-60
2022/05/08 13:32:06;;;;;;;13.47;3.30;;;;;;;;;;5026012;28;20879;-59
2022/05/08 13:34:33;;;;;;;5.83;2.80;;;;;;;;;;5027364;28;20191;-60
2022/05/08 13:37:00;;;;;;;4.63;2.80;;;;;;;;;;5026909;28;20651;-59
2022/05/08 13:39:27;;;;;;;4.73;2.70;;;;;;;;;;5012846;28;20204;-59
2022/05/08 13:41:58;;;;;;;20.23;3.43;;;;;;;;;;5009516;28;20188;-59
2022/05/08 13:44:25;;;;;;;8.57;2.73;;;;;;;;;;5021439;28;20192;-60
2022/05/08 13:46:53;;;;;;;4.73;2.30;;;;;;;;;;4999196;28;20658;-59
2022/05/08 13:49:22;;;;;;;7.63;2.57;;;;;;;;;;5013824;28;20192;-59
2022/05/08 13:51:51;;;;;;;5.50;2.30;;;;;;;;;;5023322;28;20282;-59
2022/05/08 13:54:18;;;;;;;10.00;2.50;;;;;;;;;;5002671;28;20663;-59
2022/05/08 13:56:46;;;;;;;4.60;2.60;;;;;;;;;;5018936;28;20271;-59
2022/05/08 13:59:13;;;;;;;6.43;2.87;;;;;;;;;;5019465;28;20234;-59
2022/05/08 14:01:41;;;;;;;8.00;2.70;;;;;;;;;;4993666;28;20263;-60
2022/05/08 14:04:09;;;;;;;5.17;2.80;;;;;;;;;;4994986;28;20183;-59
2022/05/08 14:06:36;;;;;;;6.37;3.07;;;;;;;;;;5019964;28;20191;-59
2022/05/08 14:09:03;;;;;;;4.67;2.70;;;;;;;;;;5018416;28;20661;-59
2022/05/08 14:11:30;;;;;;;5.70;3.07;;;;;;;;;;5012158;28;20196;-59
2022/05/08 14:13:57;;;;;;;4.10;2.90;;;;;;;;;;5004941;28;20215;-60
2022/05/08 14:16:24;;;;;;;5.37;2.87;;;;;;;;;;5012792;28;20295;-59
2022/05/08 14:18:51;;;;;;;12.10;3.00;;;;;;;;;;5017429;28;20195;-59
2022/05/08 14:21:18;;;;;;;7.73;3.07;;;;;;;;;;5020071;28;20313;-59
2022/05/08 14:23:45;;;;;;;6.87;2.97;;;;;;;;;;5010958;28;20215;-59
2022/05/08 14:26:12;;;;;;;6.70;3.20;;;;;;;;;;5023661;28;20188;-59
2022/05/08 14:28:58;;;;;;;10.57;3.33;;;;;;;;;;5010879;28;20176;-59
2022/05/08 14:36:57;;;;;;;8.97;4.13;;;;;;;;;;4997591;28;20234;-59
2022/05/08 14:39:24;;;;;;;7.80;3.67;;;;;;;;;;5035900;28;20207;-59
2022/05/08 14:41:51;;;;;;;10.30;3.80;;;;;;;;;;5032299;28;20191;-58
2022/05/08 14:44:18;;;;;;;6.23;4.13;;;;;;;;;;5021396;28;20237;-59
2022/05/08 14:46:45;;;;;;;5.50;4.23;;;;;;;;;;5028470;28;20615;-59
2022/05/08 14:49:12;;;;;;;7.07;4.67;;;;;;;;;;5029579;28;20194;-61
2022/05/08 14:51:39;;;;;;;6.23;4.53;;;;;;;;;;5033432;28;20225;-61
2022/05/08 14:54:06;;;;;;;16.60;5.00;;;;;;;;;;5027769;28;20258;-61
2022/05/08 14:56:33;;;;;;;7.83;5.40;;;;;;;;;;5027796;28;20550;-60
2022/05/08 14:59:00;;;;;;;8.00;4.87;;;;;;;;;;5030135;28;20226;-60
2022/05/08 15:01:27;;;;;;;8.53;5.63;;;;;;;;;;5030106;28;20242;-61
2022/05/08 15:03:54;;;;;;;20.70;5.90;;;;;;;;;;5029602;28;20311;-70
2022/05/08 15:06:21;;;;;;;6.57;5.03;;;;;;;;;;5030473;28;20191;-71
2022/05/08 15:08:48;;;;;;;9.17;5.63;;;;;;;;;;5028401;28;20206;-70
2022/05/08 15:11:18;;;;;;;10.07;5.97;;;;;;;;;;5030135;28;20179;-70
2022/05/08 15:13:44;;;;;;;9.67;6.10;;;;;;;;;;5030325;28;20658;-68
2022/05/08 15:16:12;;;;;;;9.67;6.10;;;;;;;;;;5029753;28;20192;-69
2022/05/08 15:18:57;;;;;;;11.23;6.80;;;;;;;;;;5005988;28;20176;-71
2022/05/08 15:21:24;;;;;;;10.23;6.30;;;;;;;;;;5008872;28;20294;-69